Wellington, New Zealand
Current Conditions -  °F | °C
As of 11:00 AM on Saturday 29 Nov 2014 (Local Time) from NZWN Reporting Station
Clear Clear  
Wind Chill: 63°   Ceiling: Unl
Heat Index: 63°   Visibility: 6mi
Dew Point: 39°   Wind: 14mph
Humidity: 42%   Direction: 340°NNW
Pressure: 29.68"   Gusts: NA
Location:  41.29°S, 174.78°E
Report Text: NZWN 282300Z AUTO 34012KT 310V020 9999 NCD 17/04 Q1005 BECMG34018G30KT
Loading
Personal Weather Stations






























Interactive Weather Map New forecast layout! Learn more

10-Day Weather Forecast

Advertisements
Track Severe Weather on mobile